Time;durP1;ratioP1;P1;durP2;ratioP2;P2;SDS_P1;SDS_P2;PMS_P1;PMS_P2;Temp;Humidity;BMP_temperature;BMP_pressure;BME280_temperature;BME280_humidity;BME280_pressure;Samples;Min_cycle;Max_cycle;Signal;HPM_P1;HPM_P2
2023/09/24 00:00:29;;;;;;;1.40;1.08;;;;;;;;;;5049631;28;20385;-80
2023/09/24 00:02:55;;;;;;;1.50;1.10;;;;;;;;;;5054978;28;20388;-80
2023/09/24 00:05:21;;;;;;;1.30;1.10;;;;;;;;;;5054806;28;20743;-80
2023/09/24 00:07:48;;;;;;;1.30;1.00;;;;;;;;;;5055061;28;20464;-80
2023/09/24 00:10:14;;;;;;;1.30;1.10;;;;;;;;;;5054854;28;20461;-80
2023/09/24 00:12:40;;;;;;;2.88;1.05;;;;;;;;;;5054870;28;20410;-80
2023/09/24 00:15:07;;;;;;;1.13;0.85;;;;;;;;;;5055060;28;20392;-80
2023/09/24 00:17:34;;;;;;;1.40;0.93;;;;;;;;;;5054666;28;20416;-80
2023/09/24 00:20:00;;;;;;;1.40;1.20;;;;;;;;;;5054842;28;20454;-80
2023/09/24 00:22:26;;;;;;;1.70;1.08;;;;;;;;;;5055044;28;20380;-80
2023/09/24 00:24:52;;;;;;;1.40;0.98;;;;;;;;;;5057109;28;20488;-80
2023/09/24 00:27:18;;;;;;;1.63;1.00;;;;;;;;;;5048972;28;20374;-81
2023/09/24 00:29:44;;;;;;;1.00;0.90;;;;;;;;;;5054684;28;20750;-80
2023/09/24 00:32:10;;;;;;;1.00;0.80;;;;;;;;;;5055181;28;20835;-80
2023/09/24 00:34:38;;;;;;;0.93;0.77;;;;;;;;;;5054688;28;20385;-80
2023/09/24 00:37:05;;;;;;;1.20;0.90;;;;;;;;;;5053375;28;20401;-80
2023/09/24 00:39:31;;;;;;;1.08;0.98;;;;;;;;;;5054945;28;20381;-80
2023/09/24 00:41:57;;;;;;;0.82;0.80;;;;;;;;;;5057214;28;20732;-80
2023/09/24 00:44:24;;;;;;;1.48;0.90;;;;;;;;;;5053630;28;20385;-80
2023/09/24 00:46:50;;;;;;;1.20;0.90;;;;;;;;;;5054560;28;20874;-80
2023/09/24 00:49:16;;;;;;;0.88;0.88;;;;;;;;;;5060374;28;20510;-81
2023/09/24 00:51:42;;;;;;;2.20;1.08;;;;;;;;;;5056505;28;20712;-81
2023/09/24 00:54:09;;;;;;;1.25;0.88;;;;;;;;;;5056639;28;20393;-81
2023/09/24 00:56:36;;;;;;;1.60;1.10;;;;;;;;;;5055831;28;20382;-80
2023/09/24 00:59:02;;;;;;;1.60;1.02;;;;;;;;;;5055910;28;20484;-81
2023/09/24 01:01:29;;;;;;;1.63;1.00;;;;;;;;;;5056214;28;20373;-80
2023/09/24 01:03:55;;;;;;;2.88;1.05;;;;;;;;;;5038761;28;20438;-81
2023/09/24 01:06:21;;;;;;;2.65;1.10;;;;;;;;;;5053838;28;20381;-80
2023/09/24 01:08:48;;;;;;;1.58;0.90;;;;;;;;;;5055082;28;20408;-80
2023/09/24 01:11:14;;;;;;;1.55;1.05;;;;;;;;;;5055830;28;20393;-80
2023/09/24 01:13:41;;;;;;;2.83;1.10;;;;;;;;;;5054957;28;20389;-80
2023/09/24 01:16:08;;;;;;;0.82;0.82;;;;;;;;;;5055514;28;20472;-80
2023/09/24 01:18:39;;;;;;;1.10;0.77;;;;;;;;;;5058195;28;20393;-80
2023/09/24 01:21:12;;;;;;;1.00;0.90;;;;;;;;;;5058812;28;20381;-80
2023/09/24 01:23:40;;;;;;;1.50;1.00;;;;;;;;;;5058294;28;20459;-81
2023/09/24 01:26:08;;;;;;;2.35;1.10;;;;;;;;;;5058303;28;20380;-80
2023/09/24 01:28:34;;;;;;;1.50;1.00;;;;;;;;;;5058610;28;20823;-80
2023/09/24 01:31:01;;;;;;;2.22;0.88;;;;;;;;;;5053924;28;20814;-81
2023/09/24 01:33:27;;;;;;;1.00;0.87;;;;;;;;;;5057903;28;20411;-80
2023/09/24 01:35:53;;;;;;;2.10;1.00;;;;;;;;;;5057774;28;20389;-81
2023/09/24 01:38:19;;;;;;;0.80;0.80;;;;;;;;;;5058694;28;20413;-80
2023/09/24 01:40:45;;;;;;;1.15;0.93;;;;;;;;;;5057941;28;20396;-80
2023/09/24 01:43:14;;;;;;;1.42;0.77;;;;;;;;;;5057682;28;20722;-80
2023/09/24 01:45:40;;;;;;;0.98;0.80;;;;;;;;;;5057823;28;20389;-80
2023/09/24 01:48:09;;;;;;;1.35;0.90;;;;;;;;;;5057593;28;20439;-80
2023/09/24 01:50:36;;;;;;;3.17;0.77;;;;;;;;;;5057728;28;20470;-80
2023/09/24 01:53:03;;;;;;;1.10;0.90;;;;;;;;;;5057048;28;20385;-80
2023/09/24 01:55:29;;;;;;;1.13;1.00;;;;;;;;;;5058281;28;20478;-80
2023/09/24 01:57:55;;;;;;;1.00;0.90;;;;;;;;;;5057172;28;20400;-81
2023/09/24 02:00:25;;;;;;;1.38;0.88;;;;;;;;;;5057053;28;20377;-80
2023/09/24 02:02:59;;;;;;;2.42;0.80;;;;;;;;;;5056594;28;20844;-80
2023/09/24 02:05:26;;;;;;;1.08;0.70;;;;;;;;;;5056667;28;20851;-80
2023/09/24 02:07:52;;;;;;;1.10;0.80;;;;;;;;;;5047251;28;20924;-80
2023/09/24 02:10:18;;;;;;;0.82;0.70;;;;;;;;;;5051934;28;20417;-80
2023/09/24 02:12:45;;;;;;;0.90;0.65;;;;;;;;;;5056780;28;20385;-80
2023/09/24 02:15:18;;;;;;;1.50;0.63;;;;;;;;;;5056826;28;20471;-80
2023/09/24 02:17:45;;;;;;;0.90;0.75;;;;;;;;;;5056865;28;20409;-80
2023/09/24 02:20:25;;;;;;;1.70;0.60;;;;;;;;;;5061448;28;20381;-80
2023/09/24 02:22:57;;;;;;;0.70;0.60;;;;;;;;;;5057317;28;20424;-81
2023/09/24 02:25:27;;;;;;;1.60;0.80;;;;;;;;;;5057727;28;20385;-81
2023/09/24 02:27:53;;;;;;;1.00;0.70;;;;;;;;;;5057558;28;20368;-81
2023/09/24 02:30:20;;;;;;;1.23;0.68;;;;;;;;;;5057069;28;20435;-80
2023/09/24 02:32:47;;;;;;;0.50;0.50;;;;;;;;;;5060061;28;20384;-80
2023/09/24 02:35:14;;;;;;;0.70;0.68;;;;;;;;;;5056936;28;20381;-80
2023/09/24 02:37:40;;;;;;;1.05;0.70;;;;;;;;;;5056522;28;20851;-80
2023/09/24 02:40:18;;;;;;;0.80;0.70;;;;;;;;;;5056916;28;20417;-80
2023/09/24 02:42:46;;;;;;;0.77;0.70;;;;;;;;;;5057016;28;20386;-81
2023/09/24 02:45:15;;;;;;;1.50;0.67;;;;;;;;;;5057745;28;20430;-82
2023/09/24 02:47:42;;;;;;;1.25;0.60;;;;;;;;;;5056586;28;20930;-80
2023/09/24 02:50:08;;;;;;;1.00;0.60;;;;;;;;;;5058831;28;20456;-80
2023/09/24 02:52:36;;;;;;;0.68;0.60;;;;;;;;;;5055907;28;20393;-80
2023/09/24 02:55:04;;;;;;;1.30;0.70;;;;;;;;;;5055534;28;20461;-80
2023/09/24 02:57:30;;;;;;;0.80;0.67;;;;;;;;;;5054909;28;20476;-82
2023/09/24 02:59:58;;;;;;;1.50;0.70;;;;;;;;;;5055893;28;20447;-80
2023/09/24 03:02:27;;;;;;;0.63;0.60;;;;;;;;;;5055746;28;20723;-79
2023/09/24 03:04:53;;;;;;;1.00;0.80;;;;;;;;;;5056313;28;20385;-79
2023/09/24 03:07:19;;;;;;;0.63;0.60;;;;;;;;;;5056116;28;20400;-79
2023/09/24 03:09:45;;;;;;;0.77;0.65;;;;;;;;;;5055936;28;20887;-79
2023/09/24 03:12:12;;;;;;;1.60;0.60;;;;;;;;;;5055877;28;20381;-80
2023/09/24 03:14:38;;;;;;;0.60;0.60;;;;;;;;;;5054871;28;20401;-79
2023/09/24 03:17:05;;;;;;;1.35;0.80;;;;;;;;;;5053365;28;20439;-79
2023/09/24 03:19:31;;;;;;;0.60;0.60;;;;;;;;;;5055596;28;20430;-79
2023/09/24 03:21:57;;;;;;;1.13;0.60;;;;;;;;;;5056035;28;20385;-79
2023/09/24 03:24:23;;;;;;;1.40;0.50;;;;;;;;;;5055475;28;20412;-79
2023/09/24 03:26:49;;;;;;;0.77;0.57;;;;;;;;;;5055934;28;20404;-79
2023/09/24 03:29:15;;;;;;;0.70;0.50;;;;;;;;;;5055569;28;20411;-79
2023/09/24 03:31:42;;;;;;;0.90;0.50;;;;;;;;;;5055480;28;20382;-79
2023/09/24 03:34:08;;;;;;;0.63;0.50;;;;;;;;;;5055155;28;20854;-79
2023/09/24 03:36:34;;;;;;;0.70;0.63;;;;;;;;;;5055442;28;20397;-79
2023/09/24 03:39:00;;;;;;;0.60;0.50;;;;;;;;;;5053459;28;20405;-79
2023/09/24 03:41:26;;;;;;;1.05;0.68;;;;;;;;;;5054965;28;20398;-80
2023/09/24 03:43:52;;;;;;;1.20;0.60;;;;;;;;;;5054885;28;20385;-80
2023/09/24 03:46:19;;;;;;;0.80;0.50;;;;;;;;;;5062202;28;20377;-79
2023/09/24 03:48:45;;;;;;;0.50;0.50;;;;;;;;;;5054716;28;20794;-79
2023/09/24 03:51:11;;;;;;;0.55;0.55;;;;;;;;;;5054787;28;20436;-79
2023/09/24 03:53:38;;;;;;;1.10;0.50;;;;;;;;;;5054889;28;20385;-79
2023/09/24 03:56:07;;;;;;;0.63;0.50;;;;;;;;;;5055027;28;20926;-79
2023/09/24 03:58:33;;;;;;;0.98;0.50;;;;;;;;;;5055123;28;20783;-79
2023/09/24 04:00:59;;;;;;;1.00;0.60;;;;;;;;;;5054986;28;20452;-79
2023/09/24 04:03:25;;;;;;;0.88;0.60;;;;;;;;;;5055344;28;20390;-80
2023/09/24 04:05:51;;;;;;;1.15;0.60;;;;;;;;;;5055066;28;20464;-79
2023/09/24 04:08:17;;;;;;;1.50;0.68;;;;;;;;;;5055742;28;20920;-79
2023/09/24 04:10:43;;;;;;;1.70;0.60;;;;;;;;;;5054560;28;20413;-80
2023/09/24 04:13:09;;;;;;;1.25;0.50;;;;;;;;;;5054736;28;20397;-79
2023/09/24 04:15:35;;;;;;;1.20;0.60;;;;;;;;;;5052606;28;20391;-79
2023/09/24 04:18:01;;;;;;;1.08;0.63;;;;;;;;;;5054388;28;20386;-79
2023/09/24 04:20:29;;;;;;;1.60;0.60;;;;;;;;;;5054265;28;20381;-79
2023/09/24 04:22:55;;;;;;;1.05;0.70;;;;;;;;;;5054175;28;20462;-79
2023/09/24 04:25:22;;;;;;;1.33;0.50;;;;;;;;;;5054659;28;20487;-79
2023/09/24 04:27:49;;;;;;;0.50;0.50;;;;;;;;;;5053970;28;20378;-79
2023/09/24 04:30:16;;;;;;;2.20;0.60;;;;;;;;;;5054014;28;20515;-79
2023/09/24 04:32:42;;;;;;;1.20;0.60;;;;;;;;;;5054334;28;20396;-81
2023/09/24 04:35:12;;;;;;;0.90;0.65;;;;;;;;;;5054589;28;20389;-79
2023/09/24 04:37:41;;;;;;;0.80;0.63;;;;;;;;;;5056855;28;20447;-79
2023/09/24 04:40:11;;;;;;;1.02;0.65;;;;;;;;;;5054602;28;20384;-79
2023/09/24 04:42:37;;;;;;;1.33;0.67;;;;;;;;;;5055939;28;20389;-80
2023/09/24 04:45:03;;;;;;;0.70;0.70;;;;;;;;;;5059466;28;20397;-80
2023/09/24 04:47:29;;;;;;;1.10;0.70;;;;;;;;;;5062036;28;20381;-80
2023/09/24 04:49:56;;;;;;;0.60;0.60;;;;;;;;;;5058027;28;20474;-80
2023/09/24 04:52:22;;;;;;;0.90;0.60;;;;;;;;;;5056411;28;20799;-80
2023/09/24 04:54:48;;;;;;;1.00;0.60;;;;;;;;;;5059133;28;20412;-79
2023/09/24 04:57:13;;;;;;;3.17;0.80;;;;;;;;;;5050779;28;20472;-79
2023/09/24 04:59:39;;;;;;;0.98;0.80;;;;;;;;;;5059066;28;20413;-80
2023/09/24 05:02:05;;;;;;;1.87;0.80;;;;;;;;;;5058558;28;20397;-79
2023/09/24 05:04:32;;;;;;;0.65;0.63;;;;;;;;;;5058734;28;20393;-79
2023/09/24 05:06:58;;;;;;;2.10;0.70;;;;;;;;;;5058188;28;20902;-80
2023/09/24 05:09:24;;;;;;;0.70;0.70;;;;;;;;;;5057862;28;20795;-79
2023/09/24 05:11:50;;;;;;;0.83;0.67;;;;;;;;;;5057195;28;20380;-79
2023/09/24 05:14:16;;;;;;;2.80;0.80;;;;;;;;;;5058035;28;20385;-79
2023/09/24 05:16:42;;;;;;;1.67;0.73;;;;;;;;;;5057688;28;20400;-79
2023/09/24 05:19:08;;;;;;;1.02;0.82;;;;;;;;;;5056726;28;20405;-79
2023/09/24 05:21:34;;;;;;;1.55;1.05;;;;;;;;;;5057747;28;20404;-79
2023/09/24 05:24:03;;;;;;;1.58;0.95;;;;;;;;;;5056562;28;20377;-79
2023/09/24 05:26:29;;;;;;;1.40;0.80;;;;;;;;;;5058330;28;20463;-79
2023/09/24 05:28:55;;;;;;;0.65;0.60;;;;;;;;;;5058975;28;20468;-79
2023/09/24 05:31:22;;;;;;;2.30;0.90;;;;;;;;;;5058112;28;20393;-80
2023/09/24 05:33:48;;;;;;;2.30;0.88;;;;;;;;;;5057659;28;20416;-79
2023/09/24 05:36:14;;;;;;;1.10;0.70;;;;;;;;;;5057826;28;20705;-79
2023/09/24 05:38:40;;;;;;;1.30;0.70;;;;;;;;;;5056612;28;20374;-80
2023/09/24 05:41:06;;;;;;;0.95;0.70;;;;;;;;;;5070351;28;20435;-80
2023/09/24 05:43:32;;;;;;;2.20;0.60;;;;;;;;;;5055575;28;20386;-80
2023/09/24 05:46:01;;;;;;;0.88;0.80;;;;;;;;;;5056340;28;20381;-82
2023/09/24 05:48:27;;;;;;;1.77;0.80;;;;;;;;;;5055818;28;20417;-82
2023/09/24 05:50:53;;;;;;;1.27;0.93;;;;;;;;;;5056213;28;20385;-82
2023/09/24 05:53:19;;;;;;;1.70;0.82;;;;;;;;;;5056660;28;20378;-82
2023/09/24 05:55:52;;;;;;;2.42;0.80;;;;;;;;;;5055451;28;20440;-81
2023/09/24 05:58:18;;;;;;;3.13;1.07;;;;;;;;;;5056343;28;20734;-81
2023/09/24 06:00:45;;;;;;;2.10;1.05;;;;;;;;;;5053729;28;21104;-81
2023/09/24 06:03:13;;;;;;;1.02;0.90;;;;;;;;;;5055036;28;20835;-79
2023/09/24 06:05:40;;;;;;;1.10;0.70;;;;;;;;;;5052898;28;20398;-79
2023/09/24 06:08:06;;;;;;;0.90;0.68;;;;;;;;;;5054879;28;20385;-79
2023/09/24 06:10:34;;;;;;;1.08;0.70;;;;;;;;;;5054768;28;20385;-78
2023/09/24 06:13:00;;;;;;;0.88;0.75;;;;;;;;;;5056406;28;20385;-79
2023/09/24 06:15:26;;;;;;;1.77;0.70;;;;;;;;;;5056244;28;20373;-79
2023/09/24 06:17:55;;;;;;;1.13;0.80;;;;;;;;;;5056120;28;20723;-79
2023/09/24 06:20:22;;;;;;;0.88;0.80;;;;;;;;;;5054533;28;20754;-79
2023/09/24 06:22:53;;;;;;;0.70;0.60;;;;;;;;;;5056209;28;20464;-80
2023/09/24 06:25:19;;;;;;;0.95;0.90;;;;;;;;;;5056347;28;21012;-79
2023/09/24 06:27:45;;;;;;;0.93;0.50;;;;;;;;;;5057349;28;20381;-80
2023/09/24 06:30:11;;;;;;;0.82;0.68;;;;;;;;;;5058631;28;20435;-80
2023/09/24 06:32:37;;;;;;;0.85;0.63;;;;;;;;;;5057099;28;20389;-81
2023/09/24 06:35:04;;;;;;;1.40;0.80;;;;;;;;;;5058022;28;20382;-81
2023/09/24 06:37:30;;;;;;;1.10;0.65;;;;;;;;;;5058816;28;20373;-80
2023/09/24 06:39:56;;;;;;;1.25;0.77;;;;;;;;;;5060028;28;20421;-81
2023/09/24 06:42:22;;;;;;;1.00;0.70;;;;;;;;;;5064111;28;20386;-81
2023/09/24 06:44:49;;;;;;;1.08;0.80;;;;;;;;;;5061702;28;20387;-81
2023/09/24 06:47:15;;;;;;;1.42;0.90;;;;;;;;;;5060559;28;20378;-81
2023/09/24 06:49:41;;;;;;;2.10;1.00;;;;;;;;;;5059660;28;20409;-81
2023/09/24 06:52:08;;;;;;;1.20;0.88;;;;;;;;;;5061342;28;20401;-80
2023/09/24 06:54:34;;;;;;;1.20;0.73;;;;;;;;;;5062377;28;20403;-80
2023/09/24 06:57:00;;;;;;;1.00;0.90;;;;;;;;;;5061575;28;20396;-81
2023/09/24 06:59:26;;;;;;;1.20;0.80;;;;;;;;;;5060956;28;20425;-81
2023/09/24 07:01:53;;;;;;;1.20;1.08;;;;;;;;;;5059950;28;20447;-81
2023/09/24 07:04:19;;;;;;;1.57;1.30;;;;;;;;;;5059677;28;20394;-81
2023/09/24 07:06:46;;;;;;;1.88;1.20;;;;;;;;;;5061177;28;20382;-81
2023/09/24 07:09:12;;;;;;;1.70;1.17;;;;;;;;;;5061391;28;20392;-82
2023/09/24 07:11:38;;;;;;;1.75;1.00;;;;;;;;;;5062586;28;20385;-82
2023/09/24 07:14:07;;;;;;;1.67;1.00;;;;;;;;;;5060930;28;21001;-81
2023/09/24 07:16:35;;;;;;;1.67;1.10;;;;;;;;;;5059974;28;20377;-79
2023/09/24 07:19:01;;;;;;;2.20;1.00;;;;;;;;;;5058215;28;20385;-80
2023/09/24 07:21:28;;;;;;;1.85;1.17;;;;;;;;;;5061532;28;20735;-81
2023/09/24 07:23:55;;;;;;;1.23;1.00;;;;;;;;;;5058137;28;20857;-81
2023/09/24 07:26:22;;;;;;;1.40;0.98;;;;;;;;;;5060859;28;20419;-81
2023/09/24 07:28:49;;;;;;;0.95;0.95;;;;;;;;;;5061181;28;20378;-81
2023/09/24 07:31:16;;;;;;;1.23;1.00;;;;;;;;;;5057650;28;20476;-81
2023/09/24 07:33:42;;;;;;;2.70;1.10;;;;;;;;;;5058025;28;20377;-81
2023/09/24 07:36:08;;;;;;;1.80;1.20;;;;;;;;;;5058452;28;20474;-80
2023/09/24 07:38:35;;;;;;;1.67;1.13;;;;;;;;;;5058929;28;20427;-79
2023/09/24 07:41:01;;;;;;;1.60;1.10;;;;;;;;;;5069442;28;20411;-81
2023/09/24 07:43:27;;;;;;;1.33;1.08;;;;;;;;;;5045741;28;20391;-81
2023/09/24 07:45:53;;;;;;;2.80;1.37;;;;;;;;;;5055131;28;20515;-81
2023/09/24 07:48:19;;;;;;;1.92;1.20;;;;;;;;;;5047487;28;20416;-81
2023/09/24 07:50:55;;;;;;;2.03;1.20;;;;;;;;;;5061078;28;20405;-80
2023/09/24 07:53:22;;;;;;;1.75;1.13;;;;;;;;;;5060187;28;20473;-81
2023/09/24 07:55:57;;;;;;;1.60;1.20;;;;;;;;;;5059294;28;20435;-81
2023/09/24 07:58:24;;;;;;;1.25;1.05;;;;;;;;;;5056628;28;20409;-81
2023/09/24 08:00:50;;;;;;;1.92;1.25;;;;;;;;;;5042695;28;20423;-81
2023/09/24 08:03:17;;;;;;;1.48;1.10;;;;;;;;;;5061398;28;20381;-80
2023/09/24 08:05:43;;;;;;;1.88;1.10;;;;;;;;;;5061032;28;20851;-81
2023/09/24 08:08:09;;;;;;;1.48;1.25;;;;;;;;;;5061566;28;20417;-81
2023/09/24 08:10:35;;;;;;;1.70;1.23;;;;;;;;;;5059818;28;20476;-80
2023/09/24 08:13:03;;;;;;;1.60;1.30;;;;;;;;;;5060601;28;20393;-80
2023/09/24 08:15:29;;;;;;;1.88;1.15;;;;;;;;;;5059351;28;20904;-81
2023/09/24 08:17:56;;;;;;;2.55;1.40;;;;;;;;;;5060980;28;20443;-81
2023/09/24 08:20:22;;;;;;;1.92;1.00;;;;;;;;;;5059903;28;20405;-80
2023/09/24 08:22:48;;;;;;;2.53;1.27;;;;;;;;;;5042404;28;20397;-81
2023/09/24 08:25:14;;;;;;;3.38;1.10;;;;;;;;;;5061184;28;20440;-80
2023/09/24 08:27:40;;;;;;;1.95;1.30;;;;;;;;;;5063161;28;20743;-81
2023/09/24 08:30:06;;;;;;;2.10;1.20;;;;;;;;;;5061594;28;20393;-81
2023/09/24 08:32:33;;;;;;;2.40;1.30;;;;;;;;;;5061609;28;20401;-81
2023/09/24 08:34:59;;;;;;;1.73;1.00;;;;;;;;;;5042980;28;20433;-81
2023/09/24 08:37:25;;;;;;;1.73;1.27;;;;;;;;;;5062698;28;20451;-81
2023/09/24 08:39:51;;;;;;;2.17;1.10;;;;;;;;;;5061412;28;20411;-81
2023/09/24 08:42:19;;;;;;;1.67;1.05;;;;;;;;;;5061508;28;20400;-81
2023/09/24 08:44:49;;;;;;;2.70;1.10;;;;;;;;;;5062594;28;20397;-81
2023/09/24 08:47:15;;;;;;;1.70;0.95;;;;;;;;;;5061786;28;20389;-81
2023/09/24 08:49:41;;;;;;;1.88;1.02;;;;;;;;;;5065238;28;20409;-81
2023/09/24 08:52:07;;;;;;;1.63;1.00;;;;;;;;;;5062064;28;20839;-81
2023/09/24 08:54:34;;;;;;;1.40;1.03;;;;;;;;;;5073024;28;20408;-81
2023/09/24 08:57:00;;;;;;;1.80;0.80;;;;;;;;;;5061439;28;20389;-81
2023/09/24 08:59:26;;;;;;;2.65;1.05;;;;;;;;;;5072912;28;20482;-81
2023/09/24 09:01:54;;;;;;;1.65;0.90;;;;;;;;;;5061605;28;20405;-81
2023/09/24 09:04:20;;;;;;;1.63;0.90;;;;;;;;;;5060748;28;20435;-81
2023/09/24 09:06:46;;;;;;;1.83;0.90;;;;;;;;;;5061461;28;20385;-81
2023/09/24 09:09:24;;;;;;;1.73;0.90;;;;;;;;;;5060358;28;20381;-81
2023/09/24 09:11:50;;;;;;;2.65;1.08;;;;;;;;;;5060622;28;20392;-81
2023/09/24 09:14:17;;;;;;;2.53;1.10;;;;;;;;;;5059386;28;20456;-81
2023/09/24 09:16:57;;;;;;;2.45;1.00;;;;;;;;;;5060689;28;20381;-81
2023/09/24 09:19:24;;;;;;;2.75;1.45;;;;;;;;;;5059875;28;20418;-81
2023/09/24 09:21:50;;;;;;;1.83;1.08;;;;;;;;;;5041631;28;20861;-81
2023/09/24 09:24:23;;;;;;;1.42;0.82;;;;;;;;;;5058462;28;20443;-81
2023/09/24 09:26:53;;;;;;;2.38;1.23;;;;;;;;;;5058851;28;20385;-81
2023/09/24 09:29:23;;;;;;;2.90;1.15;;;;;;;;;;5058983;28;20385;-80
2023/09/24 09:31:49;;;;;;;2.58;1.00;;;;;;;;;;5059641;28;20381;-81
2023/09/24 09:34:15;;;;;;;2.40;1.00;;;;;;;;;;5059272;28;20424;-80
2023/09/24 09:36:42;;;;;;;0.98;0.80;;;;;;;;;;5058522;28;20409;-81
2023/09/24 09:39:09;;;;;;;2.77;1.30;;;;;;;;;;5062469;28;20838;-80
2023/09/24 09:41:35;;;;;;;1.77;1.20;;;;;;;;;;5062749;28;20408;-80
2023/09/24 09:44:07;;;;;;;1.80;1.05;;;;;;;;;;5068633;28;20376;-80
2023/09/24 09:46:40;;;;;;;2.42;1.40;;;;;;;;;;5068179;28;20445;-80
2023/09/24 09:49:10;;;;;;;2.65;1.10;;;;;;;;;;5049227;28;20392;-81
2023/09/24 09:51:43;;;;;;;2.63;1.00;;;;;;;;;;5066335;28;20919;-81
2023/09/24 09:54:10;;;;;;;1.70;0.90;;;;;;;;;;5063639;28;20420;-81
2023/09/24 09:56:36;;;;;;;1.73;1.00;;;;;;;;;;5064408;28;20453;-80
2023/09/24 09:59:04;;;;;;;1.67;1.00;;;;;;;;;;5063222;28;20495;-81
2023/09/24 10:01:30;;;;;;;2.63;1.40;;;;;;;;;;5064281;28;20441;-81
2023/09/24 10:03:56;;;;;;;1.48;0.93;;;;;;;;;;5063092;28;20428;-81
2023/09/24 10:06:22;;;;;;;2.03;1.05;;;;;;;;;;5062793;28;20452;-81
2023/09/24 10:08:49;;;;;;;1.80;1.08;;;;;;;;;;5063357;28;20461;-81
2023/09/24 10:11:30;;;;;;;2.05;1.00;;;;;;;;;;5062301;28;20522;-81
2023/09/24 10:13:57;;;;;;;1.42;1.02;;;;;;;;;;5062656;28;20723;-81
2023/09/24 10:16:26;;;;;;;2.33;0.98;;;;;;;;;;5062731;28;20755;-81
2023/09/24 10:18:56;;;;;;;1.38;1.00;;;;;;;;;;5044045;28;20444;-81
2023/09/24 10:21:51;;;;;;;1.75;0.80;;;;;;;;;;5062468;28;20405;-81
2023/09/24 10:24:17;;;;;;;1.80;1.03;;;;;;;;;;5042460;28;20891;-81
2023/09/24 10:26:49;;;;;;;1.02;0.80;;;;;;;;;;5061843;28;20374;-81
2023/09/24 10:29:16;;;;;;;1.50;0.80;;;;;;;;;;5062276;28;20406;-81
2023/09/24 10:32:01;;;;;;;1.90;0.87;;;;;;;;;;5062466;28;20388;-81
2023/09/24 10:34:27;;;;;;;1.35;0.85;;;;;;;;;;5062012;28;20743;-81
2023/09/24 10:37:11;;;;;;;1.88;0.80;;;;;;;;;;5060292;28;20392;-81
2023/09/24 10:39:57;;;;;;;1.15;0.95;;;;;;;;;;5062341;28;20416;-81
2023/09/24 10:42:23;;;;;;;1.23;0.97;;;;;;;;;;5062154;28;20728;-81
2023/09/24 10:45:10;;;;;;;1.42;1.10;;;;;;;;;;5072596;28;20387;-81
2023/09/24 10:47:38;;;;;;;1.48;1.05;;;;;;;;;;5050609;28;20902;-81
2023/09/24 10:50:09;;;;;;;2.53;1.60;;;;;;;;;;5060348;28;20396;-81
2023/09/24 10:52:51;;;;;;;1.80;1.07;;;;;;;;;;5062056;28;20401;-82
2023/09/24 10:55:18;;;;;;;1.70;1.20;;;;;;;;;;5060944;28;20457;-82
2023/09/24 10:57:45;;;;;;;2.45;1.50;;;;;;;;;;5062142;28;20389;-81
2023/09/24 11:00:18;;;;;;;1.17;0.70;;;;;;;;;;5062781;28;20451;-81
2023/09/24 11:02:44;;;;;;;1.20;0.60;;;;;;;;;;5060635;28;20389;-81
2023/09/24 11:05:10;;;;;;;2.10;0.77;;;;;;;;;;5060637;28;20384;-81
2023/09/24 11:07:37;;;;;;;1.50;1.00;;;;;;;;;;5074864;28;20906;-82
2023/09/24 11:10:03;;;;;;;1.42;0.90;;;;;;;;;;5061064;28;20386;-82
2023/09/24 11:12:30;;;;;;;1.60;0.70;;;;;;;;;;5061244;28;20386;-81
2023/09/24 11:14:56;;;;;;;1.35;0.80;;;;;;;;;;5060754;28;20877;-81
2023/09/24 11:17:26;;;;;;;1.45;0.70;;;;;;;;;;5061047;28;20381;-81
2023/09/24 11:19:52;;;;;;;1.70;0.80;;;;;;;;;;5060650;28;20524;-81
2023/09/24 11:22:18;;;;;;;1.60;1.08;;;;;;;;;;5061027;28;20386;-81
2023/09/24 11:24:45;;;;;;;1.30;0.80;;;;;;;;;;5059481;28;20469;-82
2023/09/24 11:27:11;;;;;;;0.93;0.55;;;;;;;;;;5068884;28;20414;-81
2023/09/24 11:29:37;;;;;;;1.00;0.57;;;;;;;;;;5065849;28;20381;-81
2023/09/24 11:32:03;;;;;;;0.83;0.60;;;;;;;;;;5059462;28;20470;-81
2023/09/24 11:34:29;;;;;;;1.63;0.60;;;;;;;;;;5060555;28;20385;-82
2023/09/24 11:36:56;;;;;;;1.40;0.70;;;;;;;;;;5058506;28;20830;-80
2023/09/24 11:39:22;;;;;;;1.52;0.80;;;;;;;;;;5058052;28;20436;-81
2023/09/24 11:41:49;;;;;;;3.15;0.93;;;;;;;;;;5063809;28;20389;-81
2023/09/24 11:44:16;;;;;;;1.00;0.68;;;;;;;;;;5061239;28;20858;-82
2023/09/24 11:46:42;;;;;;;1.30;0.70;;;;;;;;;;5057193;28;20730;-81
2023/09/24 11:49:08;;;;;;;1.17;0.80;;;;;;;;;;5059884;28;20393;-81
2023/09/24 11:51:35;;;;;;;1.27;0.60;;;;;;;;;;5060103;28;20393;-81
2023/09/24 11:54:02;;;;;;;1.00;0.50;;;;;;;;;;5057363;28;20378;-81
2023/09/24 11:56:28;;;;;;;1.08;0.70;;;;;;;;;;5056824;28;20456;-81
2023/09/24 11:58:55;;;;;;;1.37;0.90;;;;;;;;;;5056344;28;20873;-79
2023/09/24 12:01:21;;;;;;;1.27;0.70;;;;;;;;;;5056924;28;20417;-81
2023/09/24 12:03:47;;;;;;;1.77;0.75;;;;;;;;;;5054839;28;20390;-81
2023/09/24 12:06:13;;;;;;;1.60;1.13;;;;;;;;;;5055116;28;20374;-82
2023/09/24 12:08:39;;;;;;;1.08;0.63;;;;;;;;;;5057349;28;20404;-79
2023/09/24 12:11:05;;;;;;;1.65;1.48;;;;;;;;;;5057036;28;20397;-80
2023/09/24 12:13:31;;;;;;;1.35;0.80;;;;;;;;;;5059326;28;20382;-81
2023/09/24 12:15:58;;;;;;;2.13;0.90;;;;;;;;;;5059774;28;20390;-81
2023/09/24 12:18:24;;;;;;;1.88;0.80;;;;;;;;;;5060938;28;20401;-81
2023/09/24 12:20:51;;;;;;;0.70;0.50;;;;;;;;;;5061092;28;20424;-81
2023/09/24 12:23:17;;;;;;;1.67;0.65;;;;;;;;;;5059749;28;20382;-81
2023/09/24 12:25:43;;;;;;;1.10;0.63;;;;;;;;;;5057862;28;20475;-80
2023/09/24 12:28:16;;;;;;;1.63;0.70;;;;;;;;;;5057047;28;20938;-81
2023/09/24 12:30:46;;;;;;;1.27;0.63;;;;;;;;;;5059175;28;20393;-81
2023/09/24 12:33:13;;;;;;;1.35;0.90;;;;;;;;;;5053938;28;20405;-81
2023/09/24 12:35:40;;;;;;;0.98;0.60;;;;;;;;;;5048256;28;20399;-82
2023/09/24 12:38:06;;;;;;;1.10;0.52;;;;;;;;;;5050154;28;20412;-81
2023/09/24 12:40:32;;;;;;;1.65;0.80;;;;;;;;;;5041926;28;20429;-82
2023/09/24 12:42:58;;;;;;;1.40;0.80;;;;;;;;;;5032182;28;20406;-81
2023/09/24 12:45:24;;;;;;;0.83;0.60;;;;;;;;;;5046411;28;20393;-81
2023/09/24 12:47:50;;;;;;;1.45;0.80;;;;;;;;;;5058176;28;20389;-81
2023/09/24 12:50:16;;;;;;;1.30;0.70;;;;;;;;;;5061244;28;20383;-81
2023/09/24 12:52:44;;;;;;;1.60;0.52;;;;;;;;;;5049252;28;20389;-81
2023/09/24 12:55:10;;;;;;;1.30;0.80;;;;;;;;;;5058395;28;20381;-81
2023/09/24 12:57:37;;;;;;;0.80;0.60;;;;;;;;;;5065477;28;20463;-81
2023/09/24 13:00:22;;;;;;;0.90;0.60;;;;;;;;;;5063922;28;20815;-80
2023/09/24 13:02:48;;;;;;;0.80;0.50;;;;;;;;;;5043547;28;20413;-81
2023/09/24 13:05:15;;;;;;;1.00;0.50;;;;;;;;;;5054694;28;20879;-81
2023/09/24 13:07:43;;;;;;;0.98;0.60;;;;;;;;;;5051429;28;20397;-80
2023/09/24 13:10:10;;;;;;;1.05;0.60;;;;;;;;;;5053922;28;20429;-80
2023/09/24 13:12:37;;;;;;;1.33;0.60;;;;;;;;;;5055588;28;21622;-80
2023/09/24 13:15:03;;;;;;;0.97;0.60;;;;;;;;;;5058689;28;20378;-79
2023/09/24 13:17:29;;;;;;;1.30;0.50;;;;;;;;;;5057986;28;20486;-80
2023/09/24 13:19:55;;;;;;;0.68;0.60;;;;;;;;;;5061334;28;20405;-80
2023/09/24 13:22:21;;;;;;;0.85;0.55;;;;;;;;;;5060315;28;20409;-80
2023/09/24 13:24:47;;;;;;;2.00;0.60;;;;;;;;;;5061902;28;20456;-81
2023/09/24 13:27:13;;;;;;;1.08;0.80;;;;;;;;;;5060865;28;20450;-81
2023/09/24 13:29:39;;;;;;;0.98;0.57;;;;;;;;;;5061547;28;20400;-80
2023/09/24 13:32:05;;;;;;;0.93;0.65;;;;;;;;;;5059184;28;20405;-82
2023/09/24 13:34:34;;;;;;;1.10;0.68;;;;;;;;;;5060345;28;20389;-81
2023/09/24 13:37:00;;;;;;;1.70;0.80;;;;;;;;;;5061226;28;20393;-81
2023/09/24 13:39:26;;;;;;;1.40;1.00;;;;;;;;;;5069260;28;20415;-80
2023/09/24 13:41:52;;;;;;;1.08;0.65;;;;;;;;;;5063358;28;20803;-80
2023/09/24 13:44:19;;;;;;;1.60;0.90;;;;;;;;;;5059534;28;20389;-80
2023/09/24 13:46:44;;;;;;;0.93;0.50;;;;;;;;;;5061109;28;20495;-80
2023/09/24 13:49:10;;;;;;;1.42;0.70;;;;;;;;;;5059746;28;20809;-80
2023/09/24 13:51:41;;;;;;;1.30;0.52;;;;;;;;;;5061007;28;20420;-80
2023/09/24 13:54:07;;;;;;;1.10;0.55;;;;;;;;;;5060753;28;20791;-81
2023/09/24 13:56:33;;;;;;;1.40;0.70;;;;;;;;;;5061223;28;20393;-80
2023/09/24 13:58:59;;;;;;;1.77;0.77;;;;;;;;;;5060727;28;20401;-80
2023/09/24 14:01:25;;;;;;;1.08;0.70;;;;;;;;;;5060023;28;20417;-80
2023/09/24 14:03:52;;;;;;;2.75;0.82;;;;;;;;;;5059613;28;20393;-81
2023/09/24 14:06:19;;;;;;;1.10;0.82;;;;;;;;;;5060326;28;20397;-80
2023/09/24 14:14:15;;;;;;;0.82;0.50;;;;;;;;;;5060412;28;20393;-81
2023/09/24 14:16:42;;;;;;;0.90;0.50;;;;;;;;;;5060053;28;20384;-80
2023/09/24 14:19:08;;;;;;;1.80;0.63;;;;;;;;;;5059640;28;20400;-80
2023/09/24 14:21:35;;;;;;;1.02;0.50;;;;;;;;;;5059329;28;20409;-80
2023/09/24 14:24:01;;;;;;;0.80;0.70;;;;;;;;;;5058412;28;20916;-80
2023/09/24 14:26:28;;;;;;;1.33;0.90;;;;;;;;;;5059479;28;20401;-80
2023/09/24 14:28:55;;;;;;;1.47;0.70;;;;;;;;;;5059297;28;20461;-80
2023/09/24 14:31:21;;;;;;;1.30;0.68;;;;;;;;;;5058951;28;20464;-80
2023/09/24 14:33:47;;;;;;;2.70;0.90;;;;;;;;;;5059724;28;20382;-79
2023/09/24 14:36:13;;;;;;;1.27;0.70;;;;;;;;;;5059165;28;20385;-81
2023/09/24 14:38:39;;;;;;;0.82;0.55;;;;;;;;;;5059195;28;20392;-80
2023/09/24 14:41:05;;;;;;;0.75;0.60;;;;;;;;;;5058586;28;20413;-81
2023/09/24 14:43:33;;;;;;;1.10;0.50;;;;;;;;;;5059919;28;20781;-81
2023/09/24 14:46:03;;;;;;;1.48;0.80;;;;;;;;;;5062950;28;20393;-80
2023/09/24 14:48:30;;;;;;;1.58;0.90;;;;;;;;;;5058963;28;20863;-80